Quathiaski Cove, Canada
Current Conditions -  °F | °C
As of 9:00 PM on Wednesday 17 Dec 2014 (Local Time) from CYBL Reporting Station
Drizzle Drizzle  
Wind Chill: 43°   Ceiling: 200
Heat Index: 43°   Visibility: 2mi
Dew Point: 41°   Wind: 0mph
Humidity: 93%   Direction: NA
Pressure: 29.89"   Gusts: NA
Location:  50.05°N, 125.18°W
Report Text: CYBL 180500Z 00000KT 2SM -DZ BR BKN002 OVC007 06/05 A2989 RMK SF6SC2 LAST OBS/NEXT 181400 UTC SLP123
Loading
Personal Weather Stations






























Interactive Weather Map New forecast layout! Learn more

10-Day Weather Forecast

Advertisements
Track Severe Weather on mobile